Anderson, South Carolina
Current Conditions -  °F | °C
As of 9:56 PM on Saturday 20 Dec 2014 (Local Time) from KAND Reporting Station
Overcast Overcast  
Wind Chill: 42°   Ceiling: 1000
Heat Index: 44°   Visibility: 10mi
Dew Point: 40°   Wind: 5mph
Humidity: 85%   Direction: 70°ENE
Pressure: 30.23"   Gusts: NA
Location:  34.5°N, 82.65°W
Report Text: KAND 210256Z AUTO 07004KT 10SM BKN010 OVC025 07/04 A3023 RMK AO2 SLP237 T00670044 51004
Loading
Personal Weather Stations






























Interactive Weather Map New forecast layout! Learn more

10-Day Weather Forecast

Advertisements
Track Severe Weather on mobile